createdAt,value
2022-09-23T00:01:11.572Z,1.77
2022-09-23T00:06:22.623Z,1.57
2022-09-23T00:08:50.223Z,1.77
2022-09-23T00:11:25.859Z,1.60
2022-09-23T00:13:55.054Z,1.50
2022-09-23T00:16:31.135Z,2.00
2022-09-23T00:18:57.921Z,1.67
2022-09-23T00:21:25.219Z,1.47
2022-09-23T00:23:52.053Z,1.47
2022-09-23T00:26:21.730Z,1.60
2022-09-23T00:28:49.321Z,1.47
2022-09-23T00:31:22.102Z,1.80
2022-09-23T00:33:56.629Z,1.63
2022-09-23T00:36:23.618Z,1.60
2022-09-23T00:38:50.387Z,1.60
2022-09-23T00:41:17.424Z,1.60
2022-09-23T00:43:44.178Z,1.60
2022-09-23T00:46:37.008Z,1.70
2022-09-23T00:49:12.258Z,1.90
2022-09-23T00:51:44.056Z,1.67
2022-09-23T00:54:11.387Z,1.40
2022-09-23T00:56:39.587Z,1.40
2022-09-23T00:59:09.568Z,1.83
2022-09-23T01:01:37.546Z,1.70
2022-09-23T01:04:05.704Z,1.73
2022-09-23T01:06:32.862Z,1.90
2022-09-23T01:08:59.517Z,1.80
2022-09-23T01:11:40.079Z,1.60
2022-09-23T01:14:27.842Z,1.83
2022-09-23T01:17:03.882Z,1.90
2022-09-23T01:19:36.716Z,1.77
2022-09-23T01:22:32.632Z,1.97
2022-09-23T01:25:19.006Z,1.40
2022-09-23T01:27:45.609Z,1.50
2022-09-23T01:30:12.236Z,1.77
2022-09-23T01:32:38.868Z,1.50
2022-09-23T01:35:18.377Z,1.70
2022-09-23T01:37:57.041Z,1.97
2022-09-23T01:40:28.932Z,2.20
2022-09-23T01:43:08.619Z,1.73
2022-09-23T01:45:47.061Z,1.90
2022-09-23T01:48:28.746Z,1.90
2022-09-23T01:51:13.967Z,1.70
2022-09-23T01:53:45.488Z,1.80
2022-09-23T01:56:37.136Z,2.50
2022-09-23T01:59:21.457Z,1.90
2022-09-23T02:01:55.412Z,2.10
2022-09-23T02:04:39.493Z,2.00
2022-09-23T02:07:17.883Z,2.23
2022-09-23T02:09:50.734Z,1.70
2022-09-23T02:12:21.140Z,2.00
2022-09-23T02:14:58.371Z,1.90
2022-09-23T02:17:48.311Z,1.77
2022-09-23T02:20:20.776Z,2.20
2022-09-23T02:23:01.263Z,1.97
2022-09-23T02:25:39.731Z,2.00
2022-09-23T02:28:14.814Z,2.00
2022-09-23T02:30:49.304Z,2.30
2022-09-23T02:33:30.085Z,2.60
2022-09-23T02:36:29.097Z,2.00
2022-09-23T02:39:01.283Z,2.10
2022-09-23T02:41:34.642Z,2.00
2022-09-23T02:44:08.945Z,1.60
2022-09-23T02:46:37.111Z,1.90
2022-09-23T02:49:15.770Z,1.63
2022-09-23T02:51:42.711Z,1.70
2022-09-23T02:54:17.644Z,2.20
2022-09-23T02:56:44.305Z,1.77
2022-09-23T02:59:12.919Z,1.70
2022-09-23T03:01:58.344Z,1.67
2022-09-23T03:04:53.478Z,1.80
2022-09-23T03:07:38.227Z,1.80
2022-09-23T03:10:07.826Z,1.70
2022-09-23T03:12:53.193Z,1.50
2022-09-23T03:15:35.450Z,2.10
2022-09-23T03:18:08.482Z,1.70
2022-09-23T03:20:42.506Z,1.50
2022-09-23T03:23:13.462Z,1.53
2022-09-23T03:25:44.596Z,1.67
2022-09-23T03:28:12.508Z,1.60
2022-09-23T03:30:40.102Z,1.97
2022-09-23T03:33:12.422Z,1.73
2022-09-23T03:36:06.412Z,1.70
2022-09-23T03:38:37.939Z,1.77
2022-09-23T03:41:09.450Z,1.77
2022-09-23T03:43:38.843Z,1.93
2022-09-23T03:46:08.175Z,1.80
2022-09-23T03:48:34.884Z,1.90
2022-09-23T03:51:19.026Z,1.77
2022-09-23T03:53:45.658Z,1.80
2022-09-23T03:56:12.268Z,1.53
2022-09-23T03:58:38.876Z,1.97
2022-09-23T04:01:06.292Z,2.17
2022-09-23T04:03:32.965Z,2.20
2022-09-23T04:06:02.013Z,1.93
2022-09-23T04:08:28.613Z,2.17
2022-09-23T04:11:01.541Z,2.37
2022-09-23T04:13:29.333Z,2.33
2022-09-23T04:15:55.990Z,2.13
2022-09-23T04:18:23.241Z,2.03
2022-09-23T04:20:50.202Z,1.93
2022-09-23T04:23:16.818Z,2.10
2022-09-23T04:25:50.307Z,2.17
2022-09-23T04:28:17.038Z,2.13
2022-09-23T04:30:44.295Z,2.30
2022-09-23T04:33:11.352Z,2.13
2022-09-23T04:35:40.327Z,2.23
2022-09-23T04:38:07.489Z,2.13
2022-09-23T04:40:35.793Z,2.23
2022-09-23T04:43:02.357Z,2.17
2022-09-23T04:45:30.389Z,2.30
2022-09-23T04:47:58.380Z,2.00
2022-09-23T04:50:26.072Z,2.50
2022-09-23T04:52:53.250Z,2.40
2022-09-23T04:55:20.217Z,3.27
2022-09-23T04:57:46.991Z,2.50
2022-09-23T05:00:15.212Z,2.43
2022-09-23T05:02:50.410Z,3.30
2022-09-23T05:05:23.243Z,3.27
2022-09-23T05:07:51.104Z,2.70
2022-09-23T05:10:18.324Z,3.33
2022-09-23T05:12:44.998Z,3.33
2022-09-23T05:15:13.072Z,3.67
2022-09-23T05:17:39.758Z,3.20
2022-09-23T05:20:06.938Z,2.43
2022-09-23T05:22:33.590Z,2.53
2022-09-23T05:25:01.498Z,3.10
2022-09-23T05:27:28.359Z,2.40
2022-09-23T05:29:55.023Z,2.67
2022-09-23T05:32:22.111Z,2.60
2022-09-23T05:34:48.745Z,2.30
2022-09-23T05:37:15.494Z,2.60
2022-09-23T05:39:42.124Z,2.63
2022-09-23T05:42:09.266Z,3.13
2022-09-23T05:44:35.905Z,2.70
2022-09-23T05:47:02.721Z,3.37
2022-09-23T05:49:48.242Z,2.83
2022-09-23T05:52:17.922Z,2.93
2022-09-23T05:54:44.557Z,3.03
2022-09-23T05:57:11.854Z,2.67
2022-09-23T05:59:38.485Z,2.87
2022-09-23T06:02:05.463Z,2.93
2022-09-23T06:04:32.119Z,2.70
2022-09-23T06:07:03.042Z,3.10
2022-09-23T06:09:34.228Z,2.40
2022-09-23T06:12:04.036Z,2.40
2022-09-23T06:14:30.750Z,2.20
2022-09-23T06:16:57.373Z,3.00
2022-09-23T06:19:24.078Z,2.87
2022-09-23T06:21:50.769Z,2.70
2022-09-23T06:24:21.318Z,2.23
2022-09-23T06:26:49.631Z,2.70
2022-09-23T06:29:16.339Z,2.60
2022-09-23T06:31:43.342Z,3.53
2022-09-23T06:34:13.537Z,2.60
2022-09-23T06:36:46.241Z,2.60
2022-09-23T06:39:16.746Z,2.80
2022-09-23T06:41:45.142Z,2.80
2022-09-23T06:44:12.403Z,3.07
2022-09-23T06:46:39.144Z,2.67
2022-09-23T06:49:06.177Z,2.93
2022-09-23T06:51:32.871Z,3.40
2022-09-23T06:53:59.625Z,2.60
2022-09-23T06:56:26.388Z,2.90
2022-09-23T06:58:53.340Z,3.33
2022-09-23T07:01:20.218Z,2.47
2022-09-23T07:03:48.390Z,2.90
2022-09-23T07:06:16.038Z,2.53
2022-09-23T07:08:44.929Z,2.43
2022-09-23T07:11:13.205Z,2.13
2022-09-23T07:13:41.421Z,2.30
2022-09-23T07:16:09.198Z,2.27
2022-09-23T07:18:37.480Z,2.30
2022-09-23T07:21:14.113Z,2.33
2022-09-23T07:23:42.561Z,2.20
2022-09-23T07:26:09.314Z,2.00
2022-09-23T07:28:37.303Z,2.37
2022-09-23T07:31:06.840Z,2.30
2022-09-23T07:33:35.129Z,2.13
2022-09-23T07:36:14.001Z,2.20
2022-09-23T07:38:45.186Z,2.20
2022-09-23T07:41:15.268Z,1.80
2022-09-23T07:43:41.931Z,2.07
2022-09-23T07:46:12.001Z,2.60
2022-09-23T07:48:39.298Z,2.30
2022-09-23T07:51:16.202Z,2.00
2022-09-23T07:53:42.921Z,2.17
2022-09-23T07:56:09.944Z,2.10
2022-09-23T07:58:36.646Z,2.10
2022-09-23T08:01:09.034Z,2.20
2022-09-23T08:03:36.573Z,2.20
2022-09-23T08:06:08.749Z,2.20
2022-09-23T08:08:39.346Z,6.40
2022-09-23T08:11:08.590Z,6.57
2022-09-23T08:13:35.253Z,2.80
2022-09-23T08:16:02.464Z,2.23
2022-09-23T08:18:29.287Z,2.23
2022-09-23T08:20:55.926Z,2.17
2022-09-23T08:23:23.064Z,2.40
2022-09-23T08:25:58.879Z,3.07
2022-09-23T08:28:26.371Z,2.40
2022-09-23T08:30:53.256Z,2.50
2022-09-23T08:33:23.363Z,2.60
2022-09-23T08:35:51.336Z,2.60
2022-09-23T08:38:18.859Z,2.50
2022-09-23T08:40:49.431Z,2.63
2022-09-23T08:43:28.289Z,2.00
2022-09-23T08:45:59.571Z,2.70
2022-09-23T08:48:30.327Z,2.70
2022-09-23T08:51:04.414Z,2.10
2022-09-23T08:53:37.981Z,2.33
2022-09-23T08:56:12.696Z,2.70
2022-09-23T08:59:09.154Z,2.07
2022-09-23T09:01:51.783Z,2.70
2022-09-23T09:04:39.272Z,2.40
2022-09-23T09:07:36.131Z,2.77
2022-09-23T09:10:16.711Z,2.07
2022-09-23T09:12:46.302Z,2.10
2022-09-23T09:15:24.778Z,2.60
2022-09-23T09:17:54.584Z,1.93
2022-09-23T09:20:42.145Z,2.40
2022-09-23T09:23:22.758Z,2.13
2022-09-23T09:25:52.341Z,1.80
2022-09-23T09:28:24.599Z,2.33
2022-09-23T09:30:56.391Z,2.30
2022-09-23T09:33:47.177Z,2.57
2022-09-23T09:36:33.116Z,2.40
2022-09-23T09:38:59.896Z,2.50
2022-09-23T09:41:31.389Z,2.17
2022-09-23T09:44:03.396Z,2.40
2022-09-23T09:46:45.215Z,2.03
2022-09-23T09:49:41.074Z,2.47
2022-09-23T09:52:22.586Z,2.90
2022-09-23T09:54:51.061Z,2.53
2022-09-23T09:57:35.197Z,2.20
2022-09-23T10:00:21.337Z,2.10
2022-09-23T10:03:26.988Z,2.20
2022-09-23T10:05:55.406Z,2.70
2022-09-23T10:08:22.238Z,2.30
2022-09-23T10:10:59.872Z,2.60
2022-09-23T10:13:29.451Z,2.30
2022-09-23T10:15:58.393Z,2.40
2022-09-23T10:18:38.500Z,2.37
2022-09-23T10:21:13.232Z,2.10
2022-09-23T10:23:45.495Z,2.17
2022-09-23T10:26:15.078Z,2.63
2022-09-23T10:28:48.427Z,2.30
2022-09-23T10:31:24.605Z,2.80
2022-09-23T10:33:57.686Z,2.40
2022-09-23T10:36:24.812Z,2.50
2022-09-23T10:39:18.826Z,2.70
2022-09-23T10:42:10.154Z,2.80
2022-09-23T10:45:15.242Z,3.10
2022-09-23T10:48:06.677Z,2.70
2022-09-23T10:50:48.656Z,2.63
2022-09-23T10:53:24.289Z,2.40
2022-09-23T10:55:56.760Z,2.80
2022-09-23T10:58:54.782Z,2.33
2022-09-23T11:01:31.028Z,2.77
2022-09-23T11:04:41.664Z,2.70
2022-09-23T11:07:17.201Z,2.40
2022-09-23T11:10:02.567Z,2.67
2022-09-23T11:12:41.639Z,2.30
2022-09-23T11:15:17.707Z,2.27
2022-09-23T11:18:12.374Z,2.07
2022-09-23T11:21:02.302Z,2.30
2022-09-23T11:24:08.208Z,2.37
2022-09-23T11:26:41.338Z,1.90
2022-09-23T11:29:44.905Z,1.67
2022-09-23T11:32:31.771Z,1.90
2022-09-23T11:35:20.443Z,1.87
2022-09-23T11:37:51.461Z,2.17
2022-09-23T11:40:23.524Z,2.07
2022-09-23T11:43:07.253Z,2.27
2022-09-23T11:45:40.461Z,1.87
2022-09-23T11:48:13.680Z,2.30
2022-09-23T11:50:47.984Z,2.20
2022-09-23T11:53:31.294Z,1.93
2022-09-23T11:56:34.929Z,2.20
2022-09-23T11:59:40.619Z,2.10
2022-09-23T12:02:49.404Z,1.83
2022-09-23T12:05:24.042Z,1.80
2022-09-23T12:08:29.210Z,1.90
2022-09-23T12:11:14.497Z,2.00
2022-09-23T12:14:01.333Z,2.13
2022-09-23T12:16:42.430Z,1.87
2022-09-23T12:19:18.833Z,2.50
2022-09-23T12:22:04.064Z,2.33
2022-09-23T12:24:55.744Z,2.40
2022-09-23T12:27:30.070Z,2.30
2022-09-23T12:30:01.312Z,2.13
2022-09-23T12:32:28.568Z,1.93
2022-09-23T12:34:55.834Z,1.90
2022-09-23T12:37:31.647Z,1.53
2022-09-23T12:40:16.935Z,1.70
2022-09-23T12:42:46.927Z,1.60
2022-09-23T12:45:32.709Z,2.00
2022-09-23T12:48:04.913Z,2.23
2022-09-23T12:50:48.197Z,1.80
2022-09-23T12:53:33.309Z,2.23
2022-09-23T12:56:00.721Z,1.67
2022-09-23T12:58:42.716Z,1.70
2022-09-23T13:01:15.514Z,1.50
2022-09-23T13:04:05.088Z,1.57
2022-09-23T13:06:51.720Z,1.50
2022-09-23T13:09:25.571Z,1.70
2022-09-23T13:11:53.305Z,1.80
2022-09-23T13:14:27.366Z,1.50
2022-09-23T13:16:58.194Z,1.80
2022-09-23T13:19:27.802Z,1.67
2022-09-23T13:21:54.394Z,1.53
2022-09-23T13:24:40.730Z,1.87
2022-09-23T13:27:33.210Z,1.87
2022-09-23T13:30:14.547Z,2.03
2022-09-23T13:32:47.250Z,2.30
2022-09-23T13:35:18.729Z,1.73
2022-09-23T13:37:49.808Z,1.83
2022-09-23T13:40:21.086Z,1.80
2022-09-23T13:42:52.882Z,2.33
2022-09-23T13:45:22.406Z,2.17
2022-09-23T13:47:51.417Z,1.60
2022-09-23T13:50:21.144Z,2.33
2022-09-23T13:52:59.653Z,1.80
2022-09-23T13:55:31.214Z,1.67
2022-09-23T13:58:13.290Z,1.80
2022-09-23T14:00:40.215Z,2.03
2022-09-23T14:03:37.032Z,1.93
2022-09-23T14:06:12.918Z,2.37
2022-09-23T14:08:43.801Z,2.33
2022-09-23T14:11:16.278Z,1.77
2022-09-23T14:13:44.448Z,2.60
2022-09-23T14:16:14.840Z,2.10
2022-09-23T14:18:45.565Z,1.73
2022-09-23T14:21:29.223Z,2.40
2022-09-23T14:23:56.017Z,2.23
2022-09-23T14:26:24.028Z,2.03
2022-09-23T14:28:51.771Z,2.17
2022-09-23T14:31:18.630Z,2.30
2022-09-23T14:33:46.804Z,2.37
2022-09-23T14:36:36.177Z,1.90
2022-09-23T14:39:09.539Z,1.70
2022-09-23T14:41:42.415Z,2.20
2022-09-23T14:44:24.987Z,2.10
2022-09-23T14:46:57.467Z,2.30
2022-09-23T14:49:24.921Z,2.00
2022-09-23T14:52:03.151Z,2.10
2022-09-23T14:54:33.598Z,2.00
2022-09-23T14:57:01.577Z,2.10
2022-09-23T14:59:36.824Z,2.10
2022-09-23T15:02:34.049Z,2.30
2022-09-23T15:05:20.135Z,1.93
2022-09-23T15:07:52.979Z,2.10
2022-09-23T15:10:33.046Z,2.40
2022-09-23T15:13:09.070Z,2.13
2022-09-23T15:15:36.307Z,2.40
2022-09-23T15:18:17.277Z,2.13
2022-09-23T15:20:54.804Z,2.00
2022-09-23T15:23:46.423Z,2.00
2022-09-23T15:26:20.079Z,2.00
2022-09-23T15:28:47.934Z,2.23
2022-09-23T15:31:16.449Z,2.60
2022-09-23T15:33:50.539Z,1.90
2022-09-23T15:36:28.491Z,2.30
2022-09-23T15:38:57.228Z,2.40
2022-09-23T15:41:24.397Z,2.50
2022-09-23T15:43:51.472Z,2.40
2022-09-23T15:46:25.103Z,2.30
2022-09-23T15:49:14.482Z,2.03
2022-09-23T15:51:42.898Z,2.17
2022-09-23T15:54:12.400Z,2.20
2022-09-23T15:56:39.704Z,2.00
2022-09-23T15:59:06.463Z,2.00
2022-09-23T16:01:36.446Z,2.03
2022-09-23T16:04:04.452Z,2.63
2022-09-23T16:06:31.889Z,2.03
2022-09-23T16:08:58.766Z,2.00
2022-09-23T16:11:30.102Z,2.00
2022-09-23T16:13:56.973Z,2.17
2022-09-23T16:16:23.984Z,2.73
2022-09-23T16:18:53.346Z,1.70
2022-09-23T16:21:27.757Z,2.23
2022-09-23T16:23:55.365Z,2.00
2022-09-23T16:26:25.511Z,1.57
2022-09-23T16:28:54.462Z,1.90
2022-09-23T16:31:25.216Z,2.00
2022-09-23T16:33:53.366Z,1.90
2022-09-23T16:36:28.817Z,1.90
2022-09-23T16:38:55.749Z,1.90
2022-09-23T16:41:23.479Z,1.90
2022-09-23T16:43:50.912Z,1.57
2022-09-23T16:46:18.884Z,2.10
2022-09-23T16:48:52.150Z,2.30
2022-09-23T16:51:30.646Z,1.90
2022-09-23T16:53:59.067Z,1.97
2022-09-23T16:56:28.983Z,2.20
2022-09-23T16:58:56.308Z,2.10
2022-09-23T17:01:47.044Z,1.57
2022-09-23T17:04:15.225Z,1.80
2022-09-23T17:06:50.448Z,1.73
2022-09-23T17:09:25.599Z,1.87
2022-09-23T17:12:08.978Z,1.70
2022-09-23T17:14:35.613Z,1.90
2022-09-23T17:17:04.168Z,2.13
2022-09-23T17:19:30.963Z,1.73
2022-09-23T17:21:57.572Z,1.97
2022-09-23T17:24:24.226Z,1.70
2022-09-23T17:26:53.257Z,1.63
2022-09-23T17:29:20.459Z,1.57
2022-09-23T17:31:47.177Z,2.00
2022-09-23T17:34:13.889Z,1.90
2022-09-23T17:36:40.624Z,1.60
2022-09-23T17:39:07.335Z,2.03
2022-09-23T17:41:34.192Z,2.50
2022-09-23T17:44:01.008Z,2.30
2022-09-23T17:46:29.997Z,2.27
2022-09-23T17:48:57.214Z,2.27
2022-09-23T17:51:25.398Z,2.47
2022-09-23T17:53:52.132Z,2.47
2022-09-23T17:56:20.121Z,2.10
2022-09-23T17:58:48.717Z,2.47
2022-09-23T18:01:18.795Z,2.87
2022-09-23T18:03:46.338Z,2.73
2022-09-23T18:06:21.325Z,2.70
2022-09-23T18:08:49.886Z,2.70
2022-09-23T18:11:24.155Z,3.33
2022-09-23T18:13:54.982Z,2.70
2022-09-23T18:16:24.508Z,2.83
2022-09-23T18:18:56.586Z,2.80
2022-09-23T18:21:25.885Z,2.83
2022-09-23T18:23:52.601Z,2.20
2022-09-23T18:26:22.119Z,2.37
2022-09-23T18:28:49.735Z,2.83
2022-09-23T18:31:16.687Z,2.73
2022-09-23T18:33:43.404Z,3.53
2022-09-23T18:36:10.239Z,3.00
2022-09-23T18:38:36.950Z,3.30
2022-09-23T18:41:03.792Z,3.40
2022-09-23T18:43:40.747Z,4.07
2022-09-23T18:46:17.766Z,3.23
2022-09-23T18:49:04.175Z,3.20
2022-09-23T18:51:32.369Z,3.20
2022-09-23T18:54:01.434Z,2.80
2022-09-23T18:56:33.632Z,3.07
2022-09-23T18:59:00.698Z,3.57
2022-09-23T19:01:27.451Z,3.30
2022-09-23T19:03:55.453Z,2.90
2022-09-23T19:06:22.854Z,3.20
2022-09-23T19:08:54.348Z,3.20
2022-09-23T19:11:25.102Z,3.70
2022-09-23T19:13:56.216Z,3.50
2022-09-23T19:16:24.309Z,3.33
2022-09-23T19:18:51.943Z,3.80
2022-09-23T19:21:20.926Z,3.90
2022-09-23T19:23:51.728Z,3.60
2022-09-23T19:26:20.680Z,3.70
2022-09-23T19:28:49.081Z,3.23
2022-09-23T19:31:22.885Z,3.40
2022-09-23T19:33:58.697Z,3.80
2022-09-23T19:36:37.585Z,3.40
2022-09-23T19:39:15.447Z,3.23
2022-09-23T19:41:42.097Z,3.70
2022-09-23T19:44:08.935Z,3.53
2022-09-23T19:46:37.709Z,3.70
2022-09-23T19:49:06.227Z,2.87
2022-09-23T19:51:36.937Z,3.67
2022-09-23T19:54:05.188Z,3.23
2022-09-23T19:56:33.189Z,3.70
2022-09-23T19:59:00.648Z,3.20
2022-09-23T20:01:29.355Z,3.07
2022-09-23T20:03:56.355Z,3.10
2022-09-23T20:06:23.269Z,3.30
2022-09-23T20:08:50.603Z,3.20
2022-09-23T20:11:22.575Z,2.70
2022-09-23T20:13:59.397Z,3.53
2022-09-23T20:16:28.048Z,3.37
2022-09-23T20:18:59.617Z,3.40
2022-09-23T20:21:27.186Z,3.53
2022-09-23T20:23:53.828Z,2.80
2022-09-23T20:26:39.284Z,2.70
2022-09-23T20:29:06.036Z,3.30
2022-09-23T20:31:34.461Z,2.90
2022-09-23T20:34:05.442Z,3.27
2022-09-23T20:36:33.295Z,3.60
2022-09-23T20:39:02.117Z,3.53
2022-09-23T20:41:31.221Z,3.50
2022-09-23T20:44:02.235Z,2.40
2022-09-23T20:46:29.369Z,2.80
2022-09-23T20:48:56.919Z,3.10
2022-09-23T20:51:24.724Z,2.87
2022-09-23T20:53:52.827Z,2.57
2022-09-23T20:56:21.097Z,2.30
2022-09-23T20:58:48.606Z,2.60
2022-09-23T21:01:15.739Z,2.80
2022-09-23T21:03:44.610Z,2.27
2022-09-23T21:06:13.773Z,2.83
2022-09-23T21:08:41.336Z,2.27
2022-09-23T21:11:10.788Z,2.20
2022-09-23T21:13:38.335Z,2.70
2022-09-23T21:16:10.569Z,2.20
2022-09-23T21:18:38.361Z,2.60
2022-09-23T21:21:06.369Z,2.33
2022-09-23T21:23:35.700Z,2.07
2022-09-23T21:26:07.587Z,2.20
2022-09-23T21:28:36.088Z,2.57
2022-09-23T21:31:05.339Z,2.30
2022-09-23T21:33:32.921Z,2.07
2022-09-23T21:36:05.990Z,2.13
2022-09-23T21:38:37.535Z,2.77
2022-09-23T21:41:06.986Z,2.27
2022-09-23T21:43:35.937Z,2.73
2022-09-23T21:46:04.926Z,2.80
2022-09-23T21:48:33.584Z,3.10
2022-09-23T21:51:05.718Z,3.00
2022-09-23T21:53:34.840Z,3.43
2022-09-23T21:56:10.036Z,4.53
2022-09-23T21:58:38.314Z,4.07
2022-09-23T22:01:12.366Z,4.17
2022-09-23T22:03:39.449Z,3.60
2022-09-23T22:06:10.250Z,3.40
2022-09-23T22:08:39.995Z,2.60
2022-09-23T22:11:08.328Z,2.97
2022-09-23T22:13:35.018Z,3.00
2022-09-23T22:16:05.102Z,2.90
2022-09-23T22:18:32.262Z,2.80
2022-09-23T22:20:59.181Z,3.30
2022-09-23T22:23:26.127Z,3.50
2022-09-23T22:26:02.118Z,3.27
2022-09-23T22:28:50.290Z,3.30
2022-09-23T22:31:35.617Z,3.50
2022-09-23T22:34:02.295Z,3.53
2022-09-23T22:36:28.920Z,3.10
2022-09-23T22:38:59.010Z,3.67
2022-09-23T22:41:26.286Z,2.90
2022-09-23T22:43:53.783Z,3.10
2022-09-23T22:46:22.691Z,2.93
2022-09-23T22:48:53.168Z,3.87
2022-09-23T22:51:23.146Z,2.87
2022-09-23T22:53:51.453Z,2.97
2022-09-23T22:56:19.781Z,3.50
2022-09-23T22:58:47.781Z,3.50
2022-09-23T23:01:14.526Z,4.77
2022-09-23T23:03:41.725Z,3.03
2022-09-23T23:06:09.774Z,2.77
2022-09-23T23:08:37.077Z,2.70
2022-09-23T23:11:07.183Z,2.83
2022-09-23T23:13:34.216Z,2.70
2022-09-23T23:16:08.043Z,3.17
2022-09-23T23:18:38.783Z,2.93
2022-09-23T23:21:14.882Z,2.97
2022-09-23T23:23:43.856Z,3.70
2022-09-23T23:26:11.950Z,3.37
2022-09-23T23:28:40.065Z,3.73
2022-09-23T23:31:08.821Z,4.20
2022-09-23T23:33:36.450Z,4.30
2022-09-23T23:36:04.447Z,4.40
2022-09-23T23:38:33.615Z,4.30
2022-09-23T23:41:09.074Z,4.47
2022-09-23T23:43:35.714Z,3.83
2022-09-23T23:46:02.479Z,3.90
2022-09-23T23:48:29.245Z,3.20
2022-09-23T23:50:58.209Z,2.80
2022-09-23T23:53:36.259Z,3.30
2022-09-23T23:56:05.267Z,3.37
2022-09-23T23:58:32.258Z,4.07
